sensor_id;sensor_type;location;lat;lon;timestamp;pressure;altitude;pressure_sealevel;temperature;humidity
5126;BME280;63008;53.112;8.896;2023-04-27T00:00:02;101953.25;;;4.75;84.04
5126;BME280;63008;53.112;8.896;2023-04-27T00:02:04;101958.44;;;4.82;84.76
5126;BME280;63008;53.112;8.896;2023-04-27T00:04:08;101954.94;;;4.86;84.22
5126;BME280;63008;53.112;8.896;2023-04-27T00:06:09;101950.03;;;4.88;84.41
5126;BME280;63008;53.112;8.896;2023-04-27T00:08:10;101957.09;;;4.89;84.53
5126;BME280;63008;53.112;8.896;2023-04-27T00:10:11;101955.19;;;4.85;84.54
5126;BME280;63008;53.112;8.896;2023-04-27T00:12:12;101948.09;;;4.79;84.46
5126;BME280;63008;53.112;8.896;2023-04-27T00:14:13;101949.97;;;4.68;84.33
5126;BME280;63008;53.112;8.896;2023-04-27T00:16:14;101945.88;;;4.71;84.79
5126;BME280;63008;53.112;8.896;2023-04-27T00:18:15;101947.50;;;4.72;84.57
5126;BME280;63008;53.112;8.896;2023-04-27T00:20:16;101949.44;;;4.76;84.64
5126;BME280;63008;53.112;8.896;2023-04-27T00:22:18;101946.97;;;4.75;84.20
5126;BME280;63008;53.112;8.896;2023-04-27T00:24:19;101946.97;;;4.75;84.58
5126;BME280;63008;53.112;8.896;2023-04-27T00:26:20;101944.78;;;4.72;84.40
5126;BME280;63008;53.112;8.896;2023-04-27T00:28:22;101950.22;;;4.67;84.46
5126;BME280;63008;53.112;8.896;2023-04-27T00:30:23;101946.97;;;4.75;84.84
5126;BME280;63008;53.112;8.896;2023-04-27T00:32:24;101942.59;;;4.64;84.13
5126;BME280;63008;53.112;8.896;2023-04-27T00:34:24;101949.69;;;4.70;84.29
5126;BME280;63008;53.112;8.896;2023-04-27T00:36:25;101951.84;;;4.73;84.14
5126;BME280;63008;53.112;8.896;2023-04-27T00:38:27;101958.38;;;4.72;83.87
5126;BME280;63008;53.112;8.896;2023-04-27T00:40:28;101958.94;;;4.74;84.04
5126;BME280;63008;53.112;8.896;2023-04-27T00:42:29;101952.94;;;4.67;84.40
5126;BME280;63008;53.112;8.896;2023-04-27T00:44:30;101957.81;;;4.65;84.54
5126;BME280;63008;53.112;8.896;2023-04-27T00:46:32;101954.56;;;4.63;83.88
5126;BME280;63008;53.112;8.896;2023-04-27T00:48:34;101952.38;;;4.65;84.43
5126;BME280;63008;53.112;8.896;2023-04-27T00:50:35;101966.78;;;4.65;84.06
5126;BME280;63008;53.112;8.896;2023-04-27T00:52:38;101963.81;;;4.67;84.04
5126;BME280;63008;53.112;8.896;2023-04-27T00:54:39;101962.69;;;4.63;83.46
5126;BME280;63008;53.112;8.896;2023-04-27T00:56:40;101961.28;;;4.50;83.25
5126;BME280;63008;53.112;8.896;2023-04-27T00:58:42;101970.81;;;4.58;83.51
5126;BME280;63008;53.112;8.896;2023-04-27T01:00:43;101973.03;;;4.61;83.50
5126;BME280;63008;53.112;8.896;2023-04-27T01:02:44;101971.66;;;4.63;83.24
5126;BME280;63008;53.112;8.896;2023-04-27T01:04:44;101969.78;;;4.69;83.79
5126;BME280;63008;53.112;8.896;2023-04-27T01:06:46;101978.16;;;4.57;83.01
5126;BME280;63008;53.112;8.896;2023-04-27T01:08:47;101969.69;;;4.49;83.50
5126;BME280;63008;53.112;8.896;2023-04-27T01:10:48;101980.56;;;4.54;83.29
5126;BME280;63008;53.112;8.896;2023-04-27T01:12:49;101981.44;;;4.59;83.66
5126;BME280;63008;53.112;8.896;2023-04-27T01:14:50;101977.91;;;4.59;83.31
5126;BME280;63008;53.112;8.896;2023-04-27T01:16:51;101980.66;;;4.64;83.34
5126;BME280;63008;53.112;8.896;2023-04-27T01:18:52;101980.66;;;4.64;83.28
5126;BME280;63008;53.112;8.896;2023-04-27T01:20:53;101988.19;;;4.57;83.72
5126;BME280;63008;53.112;8.896;2023-04-27T01:22:55;101981.97;;;4.56;83.75
5126;BME280;63008;53.112;8.896;2023-04-27T01:24:56;101980.56;;;4.54;84.09
5126;BME280;63008;53.112;8.896;2023-04-27T01:26:56;101990.66;;;4.58;83.92
5126;BME280;63008;53.112;8.896;2023-04-27T01:28:58;101987.09;;;4.53;83.31
5126;BME280;63008;53.112;8.896;2023-04-27T01:30:59;101988.72;;;4.54;83.37
5126;BME280;63008;53.112;8.896;2023-04-27T01:33:00;101989.00;;;4.52;83.31
5126;BME280;63008;53.112;8.896;2023-04-27T01:35:01;101994.97;;;4.49;83.34
5126;BME280;63008;53.112;8.896;2023-04-27T01:37:05;101998.47;;;4.45;83.16
5126;BME280;63008;53.112;8.896;2023-04-27T01:39:06;101994.34;;;4.37;84.01
5126;BME280;63008;53.112;8.896;2023-04-27T01:41:09;101996.25;;;4.37;84.06
5126;BME280;63008;53.112;8.896;2023-04-27T01:43:10;102003.59;;;4.36;84.34
5126;BME280;63008;53.112;8.896;2023-04-27T01:45:11;102001.41;;;4.33;84.40
5126;BME280;63008;53.112;8.896;2023-04-27T01:47:14;102006.03;;;4.38;84.72
5126;BME280;63008;53.112;8.896;2023-04-27T01:49:15;102007.41;;;4.40;83.87
5126;BME280;63008;53.112;8.896;2023-04-27T01:51:16;102000.03;;;4.36;84.04
5126;BME280;63008;53.112;8.896;2023-04-27T01:53:17;102005.41;;;4.26;84.23
5126;BME280;63008;53.112;8.896;2023-04-27T01:55:18;102002.19;;;4.29;84.31
5126;BME280;63008;53.112;8.896;2023-04-27T01:57:19;101997.84;;;4.33;84.52
5126;BME280;63008;53.112;8.896;2023-04-27T01:59:20;102006.44;;;4.20;84.58
5126;BME280;63008;53.112;8.896;2023-04-27T02:01:21;102005.88;;;4.18;84.81
5126;BME280;63008;53.112;8.896;2023-04-27T02:03:22;102008.06;;;4.21;84.95
5126;BME280;63008;53.112;8.896;2023-04-27T02:05:23;102006.66;;;4.13;84.63
5126;BME280;63008;53.112;8.896;2023-04-27T02:07:24;102005.03;;;4.12;84.72
5126;BME280;63008;53.112;8.896;2023-04-27T02:09:25;102000.44;;;4.18;85.10
5126;BME280;63008;53.112;8.896;2023-04-27T02:11:26;102005.88;;;4.18;84.64
5126;BME280;63008;53.112;8.896;2023-04-27T02:13:27;102015.09;;;4.12;84.45
5126;BME280;63008;53.112;8.896;2023-04-27T02:15:28;102011.53;;;4.11;85.02
5126;BME280;63008;53.112;8.896;2023-04-27T02:17:29;102003.44;;;4.16;85.09
5126;BME280;63008;53.112;8.896;2023-04-27T02:19:31;102017.81;;;4.12;84.70
5126;BME280;63008;53.112;8.896;2023-04-27T02:21:31;102011.53;;;4.11;84.79
5126;BME280;63008;53.112;8.896;2023-04-27T02:23:32;102009.00;;;4.00;84.56
5126;BME280;63008;53.112;8.896;2023-04-27T02:25:37;102013.88;;;3.98;84.95
5126;BME280;63008;53.112;8.896;2023-04-27T02:27:39;102016.34;;;3.99;84.67
5126;BME280;63008;53.112;8.896;2023-04-27T02:29:41;102010.91;;;3.99;84.86
5126;BME280;63008;53.112;8.896;2023-04-27T02:31:42;102022.59;;;4.00;84.94
5126;BME280;63008;53.112;8.896;2023-04-27T02:33:42;102016.88;;;3.96;84.94
5126;BME280;63008;53.112;8.896;2023-04-27T02:35:43;102009.00;;;4.00;84.97
5126;BME280;63008;53.112;8.896;2023-04-27T02:37:44;102006.00;;;3.96;84.75
5126;BME280;63008;53.112;8.896;2023-04-27T02:39:45;102014.41;;;3.95;84.94
5126;BME280;63008;53.112;8.896;2023-04-27T02:41:46;102011.09;;;3.88;84.98
5126;BME280;63008;53.112;8.896;2023-04-27T02:43:49;102015.94;;;3.86;85.11
5126;BME280;63008;53.112;8.896;2023-04-27T02:45:50;102004.00;;;3.87;85.09
5126;BME280;63008;53.112;8.896;2023-04-27T02:47:51;102014.28;;;3.80;85.16
5126;BME280;63008;53.112;8.896;2023-04-27T02:49:52;102010.47;;;3.81;85.35
5126;BME280;63008;53.112;8.896;2023-04-27T02:51:53;102010.50;;;3.86;85.00
5126;BME280;63008;53.112;8.896;2023-04-27T02:53:54;102009.22;;;3.93;85.17
5126;BME280;63008;53.112;8.896;2023-04-27T02:55:55;102014.41;;;3.95;85.03
5126;BME280;63008;53.112;8.896;2023-04-27T02:57:58;102018.72;;;3.91;85.09
5126;BME280;63008;53.112;8.896;2023-04-27T02:59:59;102009.19;;;3.88;85.66
5126;BME280;63008;53.112;8.896;2023-04-27T03:02:00;102012.22;;;3.92;85.37
5126;BME280;63008;53.112;8.896;2023-04-27T03:04:01;102009.75;;;3.90;85.08
5126;BME280;63008;53.112;8.896;2023-04-27T03:06:02;102007.25;;;3.84;85.44
5126;BME280;63008;53.112;8.896;2023-04-27T03:08:03;102004.50;;;3.79;85.48
5126;BME280;63008;53.112;8.896;2023-04-27T03:10:05;102006.09;;;3.75;85.69
5126;BME280;63008;53.112;8.896;2023-04-27T03:12:06;102011.47;;;3.70;85.96
5126;BME280;63008;53.112;8.896;2023-04-27T03:14:06;101996.00;;;3.70;85.90
5126;BME280;63008;53.112;8.896;2023-04-27T03:16:09;102013.66;;;3.73;85.68
5126;BME280;63008;53.112;8.896;2023-04-27T03:18:11;102007.16;;;3.74;85.94
5126;BME280;63008;53.112;8.896;2023-04-27T03:20:12;102018.78;;;3.69;85.75
5126;BME280;63008;53.112;8.896;2023-04-27T03:22:13;102016.38;;;3.73;85.80
5126;BME280;63008;53.112;8.896;2023-04-27T03:24:14;102015.75;;;3.66;85.68
5126;BME280;63008;53.112;8.896;2023-04-27T03:26:16;102005.72;;;3.66;85.84
5126;BME280;63008;53.112;8.896;2023-04-27T03:28:17;102012.50;;;3.64;86.40
5126;BME280;63008;53.112;8.896;2023-04-27T03:30:18;102013.25;;;3.59;86.64
5126;BME280;63008;53.112;8.896;2023-04-27T03:32:19;102026.34;;;3.62;86.19
5126;BME280;63008;53.112;8.896;2023-04-27T03:34:20;102019.28;;;3.61;86.17
5126;BME280;63008;53.112;8.896;2023-04-27T03:36:21;102015.50;;;3.67;85.78
5126;BME280;63008;53.112;8.896;2023-04-27T03:38:23;102022.22;;;3.60;85.61
5126;BME280;63008;53.112;8.896;2023-04-27T03:40:24;102022.75;;;3.57;85.99
5126;BME280;63008;53.112;8.896;2023-04-27T03:42:25;102014.53;;;3.52;86.15
5126;BME280;63008;53.112;8.896;2023-04-27T03:44:26;102016.91;;;3.44;86.65
5126;BME280;63008;53.112;8.896;2023-04-27T03:46:27;102021.13;;;3.35;86.69
5126;BME280;63008;53.112;8.896;2023-04-27T03:48:28;102029.09;;;3.41;87.11
5126;BME280;63008;53.112;8.896;2023-04-27T03:50:29;102023.13;;;3.44;87.11
5126;BME280;63008;53.112;8.896;2023-04-27T03:52:30;102028.19;;;3.36;86.95
5126;BME280;63008;53.112;8.896;2023-04-27T03:54:31;102031.66;;;3.31;87.38
5126;BME280;63008;53.112;8.896;2023-04-27T03:56:32;102032.00;;;3.35;87.41
5126;BME280;63008;53.112;8.896;2023-04-27T03:58:33;102033.59;;;3.31;87.08
5126;BME280;63008;53.112;8.896;2023-04-27T04:00:34;102034.66;;;3.30;87.22
5126;BME280;63008;53.112;8.896;2023-04-27T04:02:35;102019.38;;;3.24;87.58
5126;BME280;63008;53.112;8.896;2023-04-27T04:04:36;102029.59;;;3.38;87.53
5126;BME280;63008;53.112;8.896;2023-04-27T04:06:37;102028.56;;;3.44;87.39
5126;BME280;63008;53.112;8.896;2023-04-27T04:08:38;102024.72;;;3.40;87.42
5126;BME280;63008;53.112;8.896;2023-04-27T04:10:39;102027.13;;;3.37;87.60
5126;BME280;63008;53.112;8.896;2023-04-27T04:12:40;102029.84;;;3.37;87.51
5126;BME280;63008;53.112;8.896;2023-04-27T04:14:41;102027.97;;;3.37;87.71
5126;BME280;63008;53.112;8.896;2023-04-27T04:16:42;102033.94;;;3.39;87.41
5126;BME280;63008;53.112;8.896;2023-04-27T04:18:43;102023.59;;;3.36;87.33
5126;BME280;63008;53.112;8.896;2023-04-27T04:20:44;102033.75;;;3.46;87.74
5126;BME280;63008;53.112;8.896;2023-04-27T04:22:45;102037.03;;;3.48;87.46
5126;BME280;63008;53.112;8.896;2023-04-27T04:24:46;102032.59;;;3.42;87.23
5126;BME280;63008;53.112;8.896;2023-04-27T04:26:47;102032.03;;;3.40;87.50
5126;BME280;63008;53.112;8.896;2023-04-27T04:28:48;102037.47;;;3.40;87.77
5126;BME280;63008;53.112;8.896;2023-04-27T04:30:49;102036.50;;;3.51;87.60
5126;BME280;63008;53.112;8.896;2023-04-27T04:32:53;102048.44;;;3.50;87.60
5126;BME280;63008;53.112;8.896;2023-04-27T04:34:54;102042.66;;;3.41;87.64
5126;BME280;63008;53.112;8.896;2023-04-27T04:36:55;102048.63;;;3.43;87.69
5126;BME280;63008;53.112;8.896;2023-04-27T04:38:59;102046.16;;;3.42;87.56
5126;BME280;63008;53.112;8.896;2023-04-27T04:41:00;102050.63;;;3.53;87.42
5126;BME280;63008;53.112;8.896;2023-04-27T04:43:01;102059.47;;;3.64;87.44
5126;BME280;63008;53.112;8.896;2023-04-27T04:45:02;102055.34;;;3.62;86.84
5126;BME280;63008;53.112;8.896;2023-04-27T04:47:04;102057.53;;;3.65;86.95
5126;BME280;63008;53.112;8.896;2023-04-27T04:49:06;102055.59;;;3.60;86.79
5126;BME280;63008;53.112;8.896;2023-04-27T04:51:07;102061.59;;;3.62;87.20
5126;BME280;63008;53.112;8.896;2023-04-27T04:53:08;102061.91;;;3.66;87.51
5126;BME280;63008;53.112;8.896;2023-04-27T04:55:09;102058.09;;;3.67;87.25
5126;BME280;63008;53.112;8.896;2023-04-27T04:57:10;102062.41;;;3.63;87.16
5126;BME280;63008;53.112;8.896;2023-04-27T04:59:11;102050.53;;;3.69;87.41
5126;BME280;63008;53.112;8.896;2023-04-27T05:01:12;102053.59;;;3.77;87.10
5126;BME280;63008;53.112;8.896;2023-04-27T05:03:13;102059.97;;;3.88;87.16
5126;BME280;63008;53.112;8.896;2023-04-27T05:05:14;102057.75;;;3.85;86.56
5126;BME280;63008;53.112;8.896;2023-04-27T05:07:15;102055.03;;;3.85;86.66
5126;BME280;63008;53.112;8.896;2023-04-27T05:09:19;102050.88;;;3.77;86.67
5126;BME280;63008;53.112;8.896;2023-04-27T05:11:20;102058.25;;;3.82;87.07
5126;BME280;63008;53.112;8.896;2023-04-27T05:13:22;102055.53;;;3.82;86.97
5126;BME280;63008;53.112;8.896;2023-04-27T05:15:24;102055.34;;;3.88;86.87
5126;BME280;63008;53.112;8.896;2023-04-27T05:17:25;102058.28;;;3.87;86.92
5126;BME280;63008;53.112;8.896;2023-04-27T05:19:29;102052.38;;;3.90;86.90
5126;BME280;63008;53.112;8.896;2023-04-27T05:21:30;102064.88;;;3.91;86.86
5126;BME280;63008;53.112;8.896;2023-04-27T05:23:32;102060.56;;;3.95;86.80
5126;BME280;63008;53.112;8.896;2023-04-27T05:25:33;102056.25;;;3.99;86.68
5126;BME280;63008;53.112;8.896;2023-04-27T05:27:34;102063.34;;;4.05;86.46
5126;BME280;63008;53.112;8.896;2023-04-27T05:29:35;102068.13;;;4.19;86.03
5126;BME280;63008;53.112;8.896;2023-04-27T05:31:36;102075.53;;;4.29;85.81
5126;BME280;63008;53.112;8.896;2023-04-27T05:33:37;102077.47;;;4.33;86.29
5126;BME280;63008;53.112;8.896;2023-04-27T05:35:38;102073.94;;;4.38;86.01
5126;BME280;63008;53.112;8.896;2023-04-27T05:37:39;102078.09;;;4.45;85.63
5126;BME280;63008;53.112;8.896;2023-04-27T05:39:40;102080.06;;;4.55;85.41
5126;BME280;63008;53.112;8.896;2023-04-27T05:41:41;102082.84;;;4.65;84.67
5126;BME280;63008;53.112;8.896;2023-04-27T05:43:42;102072.78;;;4.65;84.81
5126;BME280;63008;53.112;8.896;2023-04-27T05:45:43;102076.34;;;4.71;84.28
5126;BME280;63008;53.112;8.896;2023-04-27T05:47:44;102080.72;;;4.72;84.38
5126;BME280;63008;53.112;8.896;2023-04-27T05:49:49;102072.31;;;4.73;84.06
5126;BME280;63008;53.112;8.896;2023-04-27T05:51:50;102075.88;;;4.79;83.88
5126;BME280;63008;53.112;8.896;2023-04-27T05:53:51;102083.22;;;4.83;83.71
5126;BME280;63008;53.112;8.896;2023-04-27T05:55:55;102081.41;;;4.94;83.66
5126;BME280;63008;53.112;8.896;2023-04-27T05:57:59;102086.66;;;5.10;83.11
5126;BME280;63008;53.112;8.896;2023-04-27T06:00:01;102094.03;;;5.15;82.81
5126;BME280;63008;53.112;8.896;2023-04-27T06:02:07;102094.06;;;5.25;82.82
5126;BME280;63008;53.112;8.896;2023-04-27T06:04:08;102097.38;;;5.36;82.41
5126;BME280;63008;53.112;8.896;2023-04-27T06:06:09;102096.06;;;5.44;81.20
5126;BME280;63008;53.112;8.896;2023-04-27T06:08:11;102095.78;;;5.45;80.68
5126;BME280;63008;53.112;8.896;2023-04-27T06:10:13;102099.63;;;5.49;81.07
5126;BME280;63008;53.112;8.896;2023-04-27T06:12:14;102090.94;;;5.57;81.37
5126;BME280;63008;53.112;8.896;2023-04-27T06:14:15;102099.13;;;5.67;81.40
5126;BME280;63008;53.112;8.896;2023-04-27T06:16:16;102103.75;;;5.72;81.05
5126;BME280;63008;53.112;8.896;2023-04-27T06:18:17;102111.44;;;5.85;80.73
5126;BME280;63008;53.112;8.896;2023-04-27T06:20:18;102109.03;;;5.93;79.45
5126;BME280;63008;53.112;8.896;2023-04-27T06:22:19;102107.69;;;5.96;78.24
5126;BME280;63008;53.112;8.896;2023-04-27T06:24:20;102109.03;;;5.98;77.57
5126;BME280;63008;53.112;8.896;2023-04-27T06:26:22;102112.03;;;6.07;77.85
5126;BME280;63008;53.112;8.896;2023-04-27T06:28:23;102111.53;;;6.15;78.51
5126;BME280;63008;53.112;8.896;2023-04-27T06:30:24;102115.63;;;6.17;76.99
5126;BME280;63008;53.112;8.896;2023-04-27T06:32:25;102110.44;;;6.26;76.72
5126;BME280;63008;53.112;8.896;2023-04-27T06:34:26;102114.25;;;6.30;75.86
5126;BME280;63008;53.112;8.896;2023-04-27T06:36:27;102123.81;;;6.37;75.47
5126;BME280;63008;53.112;8.896;2023-04-27T06:38:28;102121.09;;;6.52;75.06
5126;BME280;63008;53.112;8.896;2023-04-27T06:40:29;102118.06;;;6.64;73.43
5126;BME280;63008;53.112;8.896;2023-04-27T06:42:30;102116.16;;;6.74;72.70
5126;BME280;63008;53.112;8.896;2023-04-27T06:44:31;102120.22;;;6.87;72.02
5126;BME280;63008;53.112;8.896;2023-04-27T06:46:31;102112.03;;;6.92;71.44
5126;BME280;63008;53.112;8.896;2023-04-27T06:48:32;102118.59;;;6.96;71.15
5126;BME280;63008;53.112;8.896;2023-04-27T06:50:33;102118.28;;;6.97;72.11
5126;BME280;63008;53.112;8.896;2023-04-27T06:52:34;102114.72;;;7.07;71.69
5126;BME280;63008;53.112;8.896;2023-04-27T06:54:35;102116.91;;;7.15;70.23
5126;BME280;63008;53.112;8.896;2023-04-27T06:56:36;102113.84;;;7.21;70.86
5126;BME280;63008;53.112;8.896;2023-04-27T06:58:38;102112.22;;;7.25;70.36
5126;BME280;63008;53.112;8.896;2023-04-27T07:00:39;102104.25;;;7.28;69.25
5126;BME280;63008;53.112;8.896;2023-04-27T07:02:40;102112.16;;;7.35;69.06
5126;BME280;63008;53.112;8.896;2023-04-27T07:04:40;102114.56;;;7.51;69.10
5126;BME280;63008;53.112;8.896;2023-04-27T07:06:42;102118.38;;;7.55;68.92
5126;BME280;63008;53.112;8.896;2023-04-27T07:08:43;102115.91;;;7.54;68.67
5126;BME280;63008;53.112;8.896;2023-04-27T07:10:44;102118.38;;;7.55;69.33
5126;BME280;63008;53.112;8.896;2023-04-27T07:12:45;102119.75;;;7.58;70.21
5126;BME280;63008;53.112;8.896;2023-04-27T07:14:46;102113.41;;;7.62;69.61
5126;BME280;63008;53.112;8.896;2023-04-27T07:16:50;102118.03;;;7.67;69.31
5126;BME280;63008;53.112;8.896;2023-04-27T07:18:51;102113.94;;;7.69;69.72
5126;BME280;63008;53.112;8.896;2023-04-27T07:20:53;102119.09;;;7.76;69.03
5126;BME280;63008;53.112;8.896;2023-04-27T07:22:54;102121.50;;;7.82;67.48
5126;BME280;63008;53.112;8.896;2023-04-27T07:24:55;102122.09;;;7.74;67.99
5126;BME280;63008;53.112;8.896;2023-04-27T07:26:56;102113.31;;;7.82;68.22
5126;BME280;63008;53.112;8.896;2023-04-27T07:28:57;102121.19;;;7.94;66.90
5126;BME280;63008;53.112;8.896;2023-04-27T07:30:58;102114.84;;;7.98;66.26
5126;BME280;63008;53.112;8.896;2023-04-27T07:32:59;102112.59;;;8.10;66.80
5126;BME280;63008;53.112;8.896;2023-04-27T07:35:00;102118.88;;;8.11;65.94
5126;BME280;63008;53.112;8.896;2023-04-27T07:37:02;102125.69;;;8.18;65.87
5126;BME280;63008;53.112;8.896;2023-04-27T07:39:03;102119.13;;;8.19;64.89
5126;BME280;63008;53.112;8.896;2023-04-27T07:41:04;102125.41;;;8.20;63.78
5126;BME280;63008;53.112;8.896;2023-04-27T07:43:06;102123.47;;;8.15;63.03
5126;BME280;63008;53.112;8.896;2023-04-27T07:45:08;102123.19;;;8.22;62.49
5126;BME280;63008;53.112;8.896;2023-04-27T07:47:10;102121.00;;;8.24;63.09
5126;BME280;63008;53.112;8.896;2023-04-27T07:49:11;102123.13;;;8.32;63.43
5126;BME280;63008;53.112;8.896;2023-04-27T07:51:13;102130.66;;;8.50;62.53
5126;BME280;63008;53.112;8.896;2023-04-27T07:53:16;102126.50;;;8.57;60.11
5126;BME280;63008;53.112;8.896;2023-04-27T07:55:16;102127.53;;;8.61;59.55
5126;BME280;63008;53.112;8.896;2023-04-27T07:57:17;102124.28;;;8.59;61.52
5126;BME280;63008;53.112;8.896;2023-04-27T07:59:18;102125.34;;;8.63;61.89
5126;BME280;63008;53.112;8.896;2023-04-27T08:01:19;102123.44;;;8.64;61.55
5126;BME280;63008;53.112;8.896;2023-04-27T08:03:21;102124.28;;;8.59;61.15
5126;BME280;63008;53.112;8.896;2023-04-27T08:05:22;102120.13;;;8.67;61.97
5126;BME280;63008;53.112;8.896;2023-04-27T08:07:23;102110.13;;;8.81;61.79
5126;BME280;63008;53.112;8.896;2023-04-27T08:09:24;102113.66;;;8.81;60.81
5126;BME280;63008;53.112;8.896;2023-04-27T08:11:25;102115.56;;;8.86;59.51
5126;BME280;63008;53.112;8.896;2023-04-27T08:13:29;102115.09;;;9.02;60.24
5126;BME280;63008;53.112;8.896;2023-04-27T08:15:33;102117.75;;;9.12;59.68
5126;BME280;63008;53.112;8.896;2023-04-27T08:17:34;102111.22;;;9.08;58.37
5126;BME280;63008;53.112;8.896;2023-04-27T08:19:37;102116.09;;;9.11;58.06
5126;BME280;63008;53.112;8.896;2023-04-27T08:21:38;102110.28;;;9.17;59.40
5126;BME280;63008;53.112;8.896;2023-04-27T08:23:39;102112.19;;;9.17;58.02
5126;BME280;63008;53.112;8.896;2023-04-27T08:25:40;102107.34;;;9.32;60.65
5126;BME280;63008;53.112;8.896;2023-04-27T08:27:41;102108.47;;;9.31;58.14
5126;BME280;63008;53.112;8.896;2023-04-27T08:29:46;102108.00;;;9.24;57.69
5126;BME280;63008;53.112;8.896;2023-04-27T08:31:47;102111.94;;;9.13;57.43
5126;BME280;63008;53.112;8.896;2023-04-27T08:33:48;102105.00;;;9.26;56.88
5126;BME280;63008;53.112;8.896;2023-04-27T08:35:49;102110.16;;;9.27;56.88
5126;BME280;63008;53.112;8.896;2023-04-27T08:37:53;102102.97;;;9.31;57.59
5126;BME280;63008;53.112;8.896;2023-04-27T08:39:54;102111.00;;;9.28;55.18
5126;BME280;63008;53.112;8.896;2023-04-27T08:41:54;102102.81;;;9.23;57.02
5126;BME280;63008;53.112;8.896;2023-04-27T08:43:56;102102.03;;;9.41;53.21
5126;BME280;63008;53.112;8.896;2023-04-27T08:45:57;102105.19;;;9.53;54.80
5126;BME280;63008;53.112;8.896;2023-04-27T08:47:57;102097.06;;;9.66;54.84
5126;BME280;63008;53.112;8.896;2023-04-27T08:49:58;102102.06;;;9.83;55.15
5126;BME280;63008;53.112;8.896;2023-04-27T08:52:00;102099.19;;;10.11;53.70
5126;BME280;63008;53.112;8.896;2023-04-27T08:54:01;102100.06;;;10.25;53.08
5126;BME280;63008;53.112;8.896;2023-04-27T08:56:03;102095.78;;;10.51;50.47
5126;BME280;63008;53.112;8.896;2023-04-27T08:58:04;102108.13;;;10.67;49.69
5126;BME280;63008;53.112;8.896;2023-04-27T09:00:06;102102.63;;;10.35;49.44
5126;BME280;63008;53.112;8.896;2023-04-27T09:02:20;102096.31;;;10.03;50.46
5126;BME280;63008;53.112;8.896;2023-04-27T09:04:21;102099.38;;;9.78;51.81
5126;BME280;63008;53.112;8.896;2023-04-27T09:06:29;102100.53;;;9.72;52.08
5126;BME280;63008;53.112;8.896;2023-04-27T09:08:49;102105.38;;;9.80;53.23
5126;BME280;63008;53.112;8.896;2023-04-27T09:10:51;102103.94;;;10.24;55.21
5126;BME280;63008;53.112;8.896;2023-04-27T09:12:55;102105.91;;;10.69;53.20
5126;BME280;63008;53.112;8.896;2023-04-27T09:15:01;102103.88;;;11.47;48.88
5126;BME280;63008;53.112;8.896;2023-04-27T09:17:06;102096.75;;;12.08;49.25
5126;BME280;63008;53.112;8.896;2023-04-27T09:19:07;102104.81;;;12.27;49.21
5126;BME280;63008;53.112;8.896;2023-04-27T09:21:08;102103.06;;;12.09;47.37
5126;BME280;63008;53.112;8.896;2023-04-27T09:23:09;102102.06;;;12.05;47.42
5126;BME280;63008;53.112;8.896;2023-04-27T09:25:27;102110.88;;;12.51;49.26
5126;BME280;63008;53.112;8.896;2023-04-27T09:27:29;102107.22;;;12.20;50.18
5126;BME280;63008;53.112;8.896;2023-04-27T09:29:37;102101.50;;;11.67;46.36
5126;BME280;63008;53.112;8.896;2023-04-27T09:31:38;102105.00;;;11.59;47.91
5126;BME280;63008;53.112;8.896;2023-04-27T09:33:39;102102.00;;;11.02;46.89
5126;BME280;63008;53.112;8.896;2023-04-27T09:35:40;102101.91;;;10.62;48.07
5126;BME280;63008;53.112;8.896;2023-04-27T09:37:42;102104.00;;;10.70;48.32
5126;BME280;63008;53.112;8.896;2023-04-27T09:39:44;102101.13;;;10.61;48.11
5126;BME280;63008;53.112;8.896;2023-04-27T09:41:46;102099.50;;;10.60;48.38
5126;BME280;63008;53.112;8.896;2023-04-27T09:43:47;102104.88;;;11.37;49.29
5126;BME280;63008;53.112;8.896;2023-04-27T09:45:49;102094.84;;;11.95;49.83
5126;BME280;63008;53.112;8.896;2023-04-27T09:47:50;102100.09;;;12.41;48.39
5126;BME280;63008;53.112;8.896;2023-04-27T09:49:51;102099.66;;;12.47;47.11
5126;BME280;63008;53.112;8.896;2023-04-27T09:51:54;102092.47;;;13.20;48.63
5126;BME280;63008;53.112;8.896;2023-04-27T09:53:57;102097.69;;;13.95;46.67
5126;BME280;63008;53.112;8.896;2023-04-27T09:56:22;102101.44;;;13.99;42.11
5126;BME280;63008;53.112;8.896;2023-04-27T09:58:35;102095.78;;;13.31;44.20
5126;BME280;63008;53.112;8.896;2023-04-27T10:08:35;102108.97;;;12.38;43.14
5126;BME280;63008;53.112;8.896;2023-04-27T10:11:12;102101.34;;;12.35;44.15
5126;BME280;63008;53.112;8.896;2023-04-27T10:13:23;102104.63;;;12.23;48.85
5126;BME280;63008;53.112;8.896;2023-04-27T10:15:27;102094.00;;;12.08;43.46
5126;BME280;63008;53.112;8.896;2023-04-27T10:17:32;102097.00;;;12.20;43.85
5126;BME280;63008;53.112;8.896;2023-04-27T10:19:33;102099.69;;;12.12;44.12
5126;BME280;63008;53.112;8.896;2023-04-27T10:21:37;102101.81;;;12.15;44.69
5126;BME280;63008;53.112;8.896;2023-04-27T10:23:49;102102.13;;;12.13;42.86
5126;BME280;63008;53.112;8.896;2023-04-27T10:25:51;102106.97;;;11.94;43.77
5126;BME280;63008;53.112;8.896;2023-04-27T10:27:55;102102.59;;;11.93;43.19
5126;BME280;63008;53.112;8.896;2023-04-27T10:30:10;102102.97;;;11.65;42.54
5126;BME280;63008;53.112;8.896;2023-04-27T10:32:17;102104.38;;;11.49;43.74
5126;BME280;63008;53.112;8.896;2023-04-27T10:34:18;102102.66;;;11.39;44.08
5126;BME280;63008;53.112;8.896;2023-04-27T10:36:21;102107.84;;;11.54;44.61
5126;BME280;63008;53.112;8.896;2023-04-27T10:38:27;102111.50;;;11.63;43.31
5126;BME280;63008;53.112;8.896;2023-04-27T10:40:32;102105.22;;;11.63;44.76
5126;BME280;63008;53.112;8.896;2023-04-27T10:42:33;102100.16;;;11.92;44.08
5126;BME280;63008;53.112;8.896;2023-04-27T10:44:35;102105.09;;;12.17;44.45
5126;BME280;63008;53.112;8.896;2023-04-27T10:46:48;102105.53;;;12.32;45.43
5126;BME280;63008;53.112;8.896;2023-04-27T10:48:49;102103.56;;;12.76;42.90
5126;BME280;63008;53.112;8.896;2023-04-27T10:50:51;102103.63;;;12.85;42.85
5126;BME280;63008;53.112;8.896;2023-04-27T10:52:52;102095.53;;;12.88;41.45
5126;BME280;63008;53.112;8.896;2023-04-27T10:54:53;102092.75;;;12.58;45.25
5126;BME280;63008;53.112;8.896;2023-04-27T10:59:04;102084.69;;;12.62;41.19
5126;BME280;63008;53.112;8.896;2023-04-27T11:01:08;102082.81;;;13.40;43.96
5126;BME280;63008;53.112;8.896;2023-04-27T11:03:15;102095.81;;;14.38;40.47